Time;durP1;ratioP1;P1;durP2;ratioP2;P2;SDS_P1;SDS_P2;PMS_P1;PMS_P2;Temp;Humidity;BMP_temperature;BMP_pressure;BME280_temperature;BME280_humidity;BME280_pressure;Samples;Min_cycle;Max_cycle;Signal;HPM_P1;HPM_P2
2022/01/09 00:01:40;;;;;;;1.25;0.70;;;;;;;2.74;89.50;97534.50;4919291;29;20092;-76
2022/01/09 00:04:06;;;;;;;0.98;0.40;;;;;;;2.70;89.49;97546.63;4919312;29;20499;-78
2022/01/09 00:06:31;;;;;;;1.25;0.50;;;;;;;2.79;89.45;97532.00;4919116;29;20096;-76
2022/01/09 00:08:56;;;;;;;1.35;0.45;;;;;;;2.85;88.59;97525.78;4917895;29;20063;-77
2022/01/09 00:11:26;;;;;;;1.23;0.60;;;;;;;2.81;88.87;97513.16;4919219;29;20119;-77
2022/01/09 00:13:53;;;;;;;1.33;0.60;;;;;;;2.75;88.80;97520.19;4919050;29;20357;-76
2022/01/09 00:16:20;;;;;;;0.93;0.50;;;;;;;2.71;89.13;97521.66;4919326;29;20455;-78
2022/01/09 00:18:45;;;;;;;1.42;0.60;;;;;;;2.71;88.87;97514.50;4919038;29;20035;-78
2022/01/09 00:21:11;;;;;;;1.67;0.60;;;;;;;2.76;88.64;97493.38;4919441;29;20459;-77
2022/01/09 00:23:36;;;;;;;1.15;0.43;;;;;;;2.87;88.75;97509.56;4918482;29;20055;-77
2022/01/09 00:26:02;;;;;;;0.95;0.40;;;;;;;2.88;88.54;97501.38;4919316;29;20119;-76
2022/01/09 00:28:27;;;;;;;0.82;0.47;;;;;;;2.84;88.92;97504.75;4919518;29;20062;-77
2022/01/09 00:30:53;;;;;;;0.63;0.38;;;;;;;2.96;87.96;97514.38;4919449;29;20064;-78
2022/01/09 00:33:22;;;;;;;0.82;0.40;;;;;;;2.92;88.11;97497.22;4919620;29;20119;-78
2022/01/09 00:35:49;;;;;;;1.67;0.52;;;;;;;2.92;88.37;97491.09;4919989;29;20035;-76
2022/01/09 00:38:15;;;;;;;1.50;0.50;;;;;;;3.00;88.30;97488.94;4917308;29;20049;-77
2022/01/09 00:40:40;;;;;;;0.75;0.40;;;;;;;2.94;88.23;97497.81;4919195;29;20038;-78
2022/01/09 00:43:09;;;;;;;2.65;0.60;;;;;;;3.03;87.92;97493.81;4918201;29;20373;-79
2022/01/09 00:45:39;;;;;;;1.08;0.50;;;;;;;3.03;88.37;97483.16;4917430;29;20028;-78
2022/01/09 00:48:05;;;;;;;1.80;0.40;;;;;;;3.12;88.26;97495.09;4919064;29;20383;-77
2022/01/09 00:50:30;;;;;;;;;;;;;;;3.02;88.35;97486.06;4918731;29;20490;-77
2022/01/09 00:52:56;;;;;;;0.88;0.43;;;;;;;3.00;88.65;97488.13;4918972;29;19982;-77
2022/01/09 00:55:21;;;;;;;0.67;0.40;;;;;;;3.00;87.90;97491.59;4919781;29;20043;-78
2022/01/09 00:57:47;;;;;;;1.25;0.45;;;;;;;3.09;88.16;97482.22;4920637;29;20283;-79
2022/01/09 01:00:13;;;;;;;0.80;0.50;;;;;;;3.00;88.49;97496.91;4921076;29;20050;-78
2022/01/09 01:02:38;;;;;;;;;;;;;;;3.02;88.55;97494.84;4921809;29;20447;-79
2022/01/09 01:05:06;;;;;;;1.38;0.40;;;;;;;2.99;88.49;97494.47;4921456;29;19911;-77
2022/01/09 01:07:31;;;;;;;0.52;0.30;;;;;;;3.04;88.12;97499.94;4920286;29;20044;-77
2022/01/09 01:09:57;;;;;;;0.75;0.40;;;;;;;3.03;88.04;97475.19;4921626;29;20042;-81
2022/01/09 01:12:25;;;;;;;1.05;0.50;;;;;;;3.11;87.98;97477.50;4919787;29;20114;-81
2022/01/09 01:14:51;;;;;;;0.35;0.30;;;;;;;3.13;88.15;97474.59;4918757;29;20043;-78
2022/01/09 01:17:16;;;;;;;1.13;0.52;;;;;;;3.08;88.40;97477.13;4918181;29;20032;-76
2022/01/09 01:19:41;;;;;;;0.35;0.30;;;;;;;3.14;88.13;97474.38;4920514;29;20531;-79
2022/01/09 01:22:07;;;;;;;1.33;0.40;;;;;;;3.11;88.58;97474.03;4919973;29;20043;-78
2022/01/09 01:24:35;;;;;;;0.30;0.28;;;;;;;3.12;88.64;97478.31;4919877;29;20028;-76
2022/01/09 01:27:02;;;;;;;0.70;0.40;;;;;;;3.08;88.80;97482.47;4920092;29;20032;-76
2022/01/09 01:29:27;;;;;;;0.52;0.38;;;;;;;3.14;88.70;97479.72;4921431;29;20036;-78
2022/01/09 01:31:52;;;;;;;0.88;0.50;;;;;;;3.10;89.35;97483.03;4918647;29;20392;-76
2022/01/09 01:34:18;;;;;;;0.60;0.40;;;;;;;3.06;89.28;97482.69;4918820;29;20486;-76
2022/01/09 01:36:43;;;;;;;1.05;0.43;;;;;;;3.11;89.07;97482.00;4918398;29;20039;-75
2022/01/09 01:39:08;;;;;;;1.67;0.50;;;;;;;3.24;89.47;97483.63;4917713;29;20499;-79
2022/01/09 01:41:34;;;;;;;0.55;0.30;;;;;;;3.21;89.26;97486.78;4917485;29;20040;-76
2022/01/09 01:44:00;;;;;;;1.50;0.50;;;;;;;3.14;90.08;97492.19;4917440;29;20043;-75
2022/01/09 01:46:25;;;;;;;1.15;0.50;;;;;;;3.07;90.74;97516.22;4916061;29;20036;-76
2022/01/09 01:48:51;;;;;;;1.45;0.45;;;;;;;2.98;91.28;97506.97;4915904;29;20324;-75
2022/01/09 01:51:20;;;;;;;1.00;0.57;;;;;;;2.98;91.68;97514.13;4917196;29;20036;-76
2022/01/09 01:53:45;;;;;;;1.77;0.65;;;;;;;3.10;91.24;97517.63;4916952;29;20386;-75
2022/01/09 01:56:18;;;;;;;1.05;0.50;;;;;;;2.98;92.29;97528.25;4916979;29;20156;-75
2022/01/09 01:58:43;;;;;;;0.75;0.40;;;;;;;2.94;92.14;97520.94;4917080;29;20046;-77
2022/01/09 02:01:09;;;;;;;0.82;0.40;;;;;;;2.95;92.50;97520.72;4916226;29;20123;-76
2022/01/09 02:03:34;;;;;;;1.38;0.52;;;;;;;2.92;92.90;97526.47;4916744;29;20036;-76
2022/01/09 02:06:00;;;;;;;1.33;0.60;;;;;;;2.95;92.95;97527.88;4917025;29;20443;-78
2022/01/09 02:08:25;;;;;;;2.45;0.60;;;;;;;2.95;93.17;97546.50;4917157;29;20080;-76
2022/01/09 02:10:51;;;;;;;1.38;0.50;;;;;;;2.96;93.35;97540.16;4917193;29;20036;-76
2022/01/09 02:13:18;;;;;;;1.25;0.60;;;;;;;3.01;93.21;97543.75;4916868;29;20035;-76
2022/01/09 02:15:46;;;;;;;1.45;0.70;;;;;;;3.00;93.76;97555.44;4917025;29;20036;-77
2022/01/09 02:18:17;;;;;;;1.25;0.55;;;;;;;2.97;93.67;97550.56;4916160;29;20028;-77
2022/01/09 02:20:43;;;;;;;1.42;0.60;;;;;;;3.00;93.92;97552.78;4916589;29;20117;-77
2022/01/09 02:23:10;;;;;;;2.63;1.05;;;;;;;3.00;93.88;97570.59;4921217;29;20597;-77
2022/01/09 02:25:37;;;;;;;2.55;0.90;;;;;;;2.98;94.15;97570.81;4920505;29;20072;-78
2022/01/09 02:28:04;;;;;;;1.50;0.60;;;;;;;3.01;94.26;97583.66;4920807;29;20031;-77
2022/01/09 02:30:33;;;;;;;2.75;1.10;;;;;;;3.06;94.46;97591.75;4920716;29;20043;-78
2022/01/09 02:33:00;;;;;;;3.17;0.95;;;;;;;3.10;94.72;97611.53;4920402;29;20471;-77
2022/01/09 02:35:26;;;;;;;2.55;1.10;;;;;;;3.11;94.95;97609.69;4920561;29;20032;-77
2022/01/09 02:37:51;;;;;;;2.40;1.00;;;;;;;3.14;94.77;97615.38;4920724;29;20060;-77
2022/01/09 02:40:17;;;;;;;2.97;1.02;;;;;;;3.16;94.73;97625.00;4919912;29;20119;-77
2022/01/09 02:42:42;;;;;;;3.75;1.30;;;;;;;3.18;94.49;97628.25;4920499;29;20043;-78
2022/01/09 02:45:08;;;;;;;3.00;1.30;;;;;;;3.19;94.94;97635.19;4920621;29;20036;-78
2022/01/09 02:47:36;;;;;;;3.45;1.25;;;;;;;3.23;94.52;97641.66;4920465;29;20036;-77
2022/01/09 02:50:11;;;;;;;3.95;1.38;;;;;;;3.17;94.77;97643.41;4919931;29;20087;-78
2022/01/09 02:52:50;;;;;;;3.88;1.52;;;;;;;3.10;94.71;97653.31;4920804;29;20028;-77
2022/01/09 02:55:16;;;;;;;4.40;1.73;;;;;;;3.04;94.48;97657.69;4920636;29;20039;-76
2022/01/09 02:57:43;;;;;;;5.10;2.20;;;;;;;3.04;94.23;97644.38;4918995;29;20032;-77
2022/01/09 03:00:20;;;;;;;5.20;2.22;;;;;;;3.03;94.75;97672.03;4920280;29;20040;-77
2022/01/09 03:02:46;;;;;;;5.35;2.63;;;;;;;3.05;94.83;97667.25;4920518;29;20364;-77
2022/01/09 03:05:12;;;;;;;4.30;1.88;;;;;;;3.17;95.02;97680.66;4920525;29;20042;-78
2022/01/09 03:07:39;;;;;;;6.40;1.90;;;;;;;3.17;95.30;97690.47;4919571;29;20499;-80
2022/01/09 03:10:06;;;;;;;5.07;1.92;;;;;;;3.26;95.19;97673.16;4920089;29;20036;-80
2022/01/09 03:12:32;;;;;;;4.50;2.22;;;;;;;3.35;95.27;97683.28;4919716;29;20040;-80
2022/01/09 03:14:57;;;;;;;4.68;2.08;;;;;;;3.34;95.21;97704.78;4920659;29;20036;-80
2022/01/09 03:17:22;;;;;;;6.93;1.50;;;;;;;3.36;95.59;97705.38;4920128;29;20038;-77
2022/01/09 03:19:48;;;;;;;4.63;1.98;;;;;;;3.38;95.00;97708.63;4920089;29;20352;-79
2022/01/09 03:22:13;;;;;;;3.22;1.00;;;;;;;3.39;95.40;97726.22;4920041;29;20047;-76
2022/01/09 03:24:39;;;;;;;2.13;0.80;;;;;;;3.38;95.55;97735.25;4920197;29;20040;-78
2022/01/09 03:27:05;;;;;;;3.35;0.85;;;;;;;3.37;95.61;97742.41;4920293;29;20048;-78
2022/01/09 03:29:30;;;;;;;2.30;0.80;;;;;;;3.34;95.35;97760.66;4919752;29;20051;-78
2022/01/09 03:31:56;;;;;;;2.05;0.63;;;;;;;3.33;95.42;97759.03;4920051;29;20051;-80
2022/01/09 03:34:21;;;;;;;2.47;1.13;;;;;;;3.30;95.54;97768.28;4919940;29;20036;-77
2022/01/09 03:36:47;;;;;;;1.25;0.65;;;;;;;3.29;95.42;97764.00;4919855;29;20387;-77
2022/01/09 03:39:12;;;;;;;1.38;0.47;;;;;;;3.23;95.85;97769.38;4920027;29;20068;-78
2022/01/09 03:41:37;;;;;;;2.00;0.57;;;;;;;3.21;95.09;97776.81;4919852;29;20481;-76
2022/01/09 03:44:03;;;;;;;4.53;0.70;;;;;;;3.18;95.15;97771.91;4919437;29;20735;-79
2022/01/09 03:46:28;;;;;;;3.58;0.73;;;;;;;3.18;95.36;97785.22;4919555;29;20600;-77
2022/01/09 03:48:54;;;;;;;3.78;0.60;;;;;;;3.20;95.82;97801.78;4919807;29;20040;-77
2022/01/09 03:51:21;;;;;;;2.38;0.43;;;;;;;3.24;95.52;97794.97;4919670;29;20060;-77
2022/01/09 03:53:47;;;;;;;2.45;0.52;;;;;;;3.26;95.71;97811.53;4919490;29;20060;-77
2022/01/09 03:56:12;;;;;;;1.90;0.75;;;;;;;3.28;95.74;97809.47;4918416;29;20025;-77
2022/01/09 03:58:37;;;;;;;2.58;0.70;;;;;;;3.33;95.97;97817.59;4918910;29;20043;-76
2022/01/09 04:01:06;;;;;;;3.70;1.50;;;;;;;3.33;95.95;97828.25;4919370;29;20042;-77
2022/01/09 04:03:32;;;;;;;2.95;0.70;;;;;;;3.35;96.00;97839.47;4918953;29;20036;-77
2022/01/09 04:06:00;;;;;;;;;;;;;;;3.37;96.02;97846.22;4919827;29;20047;-77
2022/01/09 04:08:26;;;;;;;3.63;0.73;;;;;;;3.34;96.23;97845.84;4919695;29;19919;-78
2022/01/09 04:10:51;;;;;;;3.00;0.80;;;;;;;3.26;96.00;97844.28;4919302;29;20040;-79
2022/01/09 04:13:16;;;;;;;4.43;1.00;;;;;;;3.22;95.74;97852.94;4918082;29;20036;-81
2022/01/09 04:15:47;;;;;;;1.60;0.53;;;;;;;3.22;96.21;97866.25;4919186;29;20060;-79
2022/01/09 04:18:17;;;;;;;3.10;0.57;;;;;;;3.29;96.46;97865.13;4919042;29;20256;-78
2022/01/09 04:20:42;;;;;;;5.85;1.15;;;;;;;3.34;96.21;97880.44;4919167;29;20532;-79
2022/01/09 04:23:08;;;;;;;5.97;1.60;;;;;;;3.39;96.48;97869.94;4918726;29;20036;-79
2022/01/09 04:25:33;;;;;;;7.07;2.80;;;;;;;3.53;96.74;97886.59;4918765;29;20136;-79
2022/01/09 04:27:58;;;;;;;17.02;2.67;;;;;;;3.64;96.90;97899.16;4918633;29;20087;-78
2022/01/09 04:30:24;;;;;;;16.87;2.33;;;;;;;3.71;96.71;97908.69;4918793;29;20118;-77
2022/01/09 04:32:49;;;;;;;9.63;3.13;;;;;;;3.77;96.95;97897.13;4918882;29;20028;-76
2022/01/09 04:35:15;;;;;;;6.97;2.13;;;;;;;3.80;96.24;97910.00;4918963;29;20482;-77
2022/01/09 04:37:41;;;;;;;10.50;1.83;;;;;;;3.83;96.46;97914.91;4918676;29;20032;-78
2022/01/09 04:40:10;;;;;;;5.45;1.75;;;;;;;3.88;96.30;97919.56;4918646;29;20032;-78
2022/01/09 04:42:47;;;;;;;13.25;2.38;;;;;;;3.92;96.60;97943.91;4918899;29;20043;-80
2022/01/09 04:45:15;;;;;;;12.30;2.75;;;;;;;3.93;96.72;97946.38;4917797;29;20024;-77
2022/01/09 04:47:44;;;;;;;9.82;2.50;;;;;;;4.00;96.55;97948.94;4918742;29;20355;-78
2022/01/09 04:50:14;;;;;;;20.67;4.43;;;;;;;4.07;96.26;97955.00;4918340;29;20032;-77
2022/01/09 04:52:40;;;;;;;9.05;2.72;;;;;;;4.04;96.52;97963.44;4918336;29;20030;-77
2022/01/09 04:55:06;;;;;;;11.68;2.65;;;;;;;4.13;95.94;97968.22;4918506;29;20028;-79
2022/01/09 04:57:31;;;;;;;15.02;3.28;;;;;;;4.04;96.11;97971.44;4919093;29;20124;-78
2022/01/09 04:59:57;;;;;;;10.00;2.23;;;;;;;4.04;96.12;97976.75;4918919;29;20039;-77
2022/01/09 05:02:22;;;;;;;10.67;2.47;;;;;;;4.04;96.06;97996.22;4918230;29;20267;-77
2022/01/09 05:04:47;;;;;;;15.27;3.47;;;;;;;4.01;95.95;97995.84;4918058;29;20271;-78
2022/01/09 05:07:13;;;;;;;14.63;2.20;;;;;;;4.00;95.64;97996.88;4918534;29;20048;-76
2022/01/09 05:09:38;;;;;;;8.87;2.13;;;;;;;3.98;95.88;98002.44;4918109;29;20059;-77
2022/01/09 05:12:04;;;;;;;6.03;1.98;;;;;;;3.96;95.98;98014.34;4917382;29;20279;-77
2022/01/09 05:14:29;;;;;;;10.15;2.88;;;;;;;3.98;96.06;98012.28;4918962;29;20044;-80
2022/01/09 05:16:55;;;;;;;10.03;2.50;;;;;;;3.95;95.92;98023.38;4918764;29;20065;-78
2022/01/09 05:19:28;;;;;;;8.48;2.25;;;;;;;4.03;96.14;98036.41;4918726;29;20028;-80
2022/01/09 05:21:53;;;;;;;18.10;2.80;;;;;;;4.00;95.50;98052.84;4920030;29;20460;-79
2022/01/09 05:24:19;;;;;;;7.95;2.17;;;;;;;3.99;95.55;98054.69;4917974;29;20039;-78
2022/01/09 05:26:44;;;;;;;7.47;2.17;;;;;;;3.94;95.89;98067.84;4917925;29;20052;-76
2022/01/09 05:29:10;;;;;;;10.45;1.83;;;;;;;4.00;95.83;98066.16;4917673;29;20376;-78
2022/01/09 05:31:35;;;;;;;8.35;2.20;;;;;;;3.96;96.02;98068.44;4917606;29;20039;-76
2022/01/09 05:34:01;;;;;;;12.73;2.72;;;;;;;3.94;95.24;98080.38;4917660;29;20432;-77
2022/01/09 05:36:26;;;;;;;10.80;3.27;;;;;;;3.93;95.44;98084.91;4917401;29;20036;-76
2022/01/09 05:38:51;;;;;;;13.32;2.30;;;;;;;3.90;95.57;98081.84;4917140;29;20298;-77
2022/01/09 05:41:17;;;;;;;10.48;2.10;;;;;;;3.91;95.70;98092.28;4917919;29;20040;-76
2022/01/09 05:43:42;;;;;;;7.68;1.73;;;;;;;3.89;95.48;98093.53;4917430;29;20036;-78
2022/01/09 05:46:07;;;;;;;9.50;2.20;;;;;;;3.93;95.89;98110.72;4916307;29;20087;-77
2022/01/09 05:48:33;;;;;;;8.90;2.15;;;;;;;3.88;95.59;98107.91;4917324;29;20036;-78
2022/01/09 05:50:58;;;;;;;6.17;1.70;;;;;;;3.85;95.43;98111.81;4917418;29;20038;-78
2022/01/09 05:53:24;;;;;;;7.07;1.35;;;;;;;3.82;95.64;98125.56;4917140;29;20374;-76
2022/01/09 05:55:49;;;;;;;4.53;1.40;;;;;;;3.78;95.40;98127.81;4917453;29;20043;-80
2022/01/09 05:58:14;;;;;;;5.90;1.42;;;;;;;3.79;95.20;98125.97;4921482;29;20155;-77
2022/01/09 06:00:40;;;;;;;9.80;1.88;;;;;;;3.81;95.44;98142.56;4921606;29;20063;-80
2022/01/09 06:03:05;;;;;;;11.52;1.77;;;;;;;3.82;95.24;98150.34;4921994;29;20032;-77
2022/01/09 06:05:31;;;;;;;8.00;3.28;;;;;;;3.79;95.02;98157.94;4921521;29;20036;-77
2022/01/09 06:07:56;;;;;;;12.80;2.47;;;;;;;3.84;95.22;98166.13;4921480;29;20056;-80
2022/01/09 06:10:22;;;;;;;9.10;2.65;;;;;;;3.78;94.87;98166.97;4921288;29;20164;-77
2022/01/09 06:12:47;;;;;;;12.25;3.05;;;;;;;3.73;94.78;98175.63;4921798;29;20109;-78
2022/01/09 06:15:12;;;;;;;12.60;2.10;;;;;;;3.73;94.90;98172.97;4921778;29;20123;-77
2022/01/09 06:17:40;;;;;;;7.78;2.45;;;;;;;3.68;95.25;98183.44;4920321;29;20028;-76
2022/01/09 06:20:07;;;;;;;8.88;2.55;;;;;;;3.68;94.95;98187.94;4921380;29;20157;-78
2022/01/09 06:22:32;;;;;;;6.90;1.75;;;;;;;3.73;94.59;98188.94;4920338;29;20043;-79
2022/01/09 06:24:58;;;;;;;8.70;2.30;;;;;;;3.67;94.99;98203.13;4920313;29;20404;-78
2022/01/09 06:27:23;;;;;;;9.27;1.48;;;;;;;3.61;94.83;98200.47;4921019;29;20091;-80
2022/01/09 06:29:49;;;;;;;5.75;1.35;;;;;;;3.60;94.45;98214.81;4921428;29;20032;-79
2022/01/09 06:32:14;;;;;;;10.50;2.40;;;;;;;3.59;94.13;98214.00;4921264;29;20051;-77
2022/01/09 06:34:43;;;;;;;8.33;1.67;;;;;;;3.55;94.08;98217.34;4921379;29;20260;-83
2022/01/09 06:37:10;;;;;;;7.55;1.85;;;;;;;3.55;94.15;98220.00;4921039;29;20260;-83
2022/01/09 06:39:36;;;;;;;8.35;1.60;;;;;;;3.52;93.72;98228.41;4921475;29;20391;-82
2022/01/09 06:42:01;;;;;;;4.45;1.63;;;;;;;3.51;93.71;98240.09;4921033;29;20130;-81
2022/01/09 06:44:26;;;;;;;6.82;1.42;;;;;;;3.52;93.97;98242.53;4921397;29;20632;-80
2022/01/09 06:46:52;;;;;;;3.53;1.17;;;;;;;3.47;93.49;98253.81;4919751;29;20109;-80
2022/01/09 06:49:17;;;;;;;9.77;1.80;;;;;;;3.56;93.49;98262.38;4921173;29;20280;-79
2022/01/09 06:51:42;;;;;;;6.40;2.10;;;;;;;3.50;93.45;98260.56;4921221;29;20066;-80
2022/01/09 06:54:08;;;;;;;3.72;1.20;;;;;;;3.46;93.41;98264.66;4920269;29;20539;-76
2022/01/09 06:56:33;;;;;;;7.18;1.45;;;;;;;3.43;93.17;98276.56;4920495;29;20039;-80
2022/01/09 06:58:59;;;;;;;7.63;1.52;;;;;;;3.42;93.15;98279.44;4920575;29;20040;-81
2022/01/09 07:01:24;;;;;;;7.00;1.23;;;;;;;3.41;93.00;98278.59;4919439;29;20028;-80
2022/01/09 07:03:49;;;;;;;6.85;2.42;;;;;;;3.40;93.29;98292.16;4920827;29;20039;-80
2022/01/09 07:06:15;;;;;;;11.65;2.22;;;;;;;3.38;93.62;98291.56;4920749;29;20036;-80
2022/01/09 07:08:40;;;;;;;10.63;1.48;;;;;;;3.41;93.21;98302.56;4919632;29;20052;-79
2022/01/09 07:11:06;;;;;;;4.00;1.17;;;;;;;3.40;93.10;98303.59;4920328;29;20084;-77
2022/01/09 07:13:32;;;;;;;6.15;1.27;;;;;;;3.39;93.65;98303.84;4920298;29;20460;-78
2022/01/09 07:15:58;;;;;;;10.23;1.50;;;;;;;3.39;92.79;98319.81;4920463;29;20121;-78
2022/01/09 07:18:23;;;;;;;3.30;1.10;;;;;;;3.41;92.70;98318.53;4920311;29;20036;-79
2022/01/09 07:20:49;;;;;;;8.20;2.33;;;;;;;3.40;92.24;98321.44;4919090;29;20043;-78
2022/01/09 07:23:15;;;;;;;16.80;2.40;;;;;;;3.38;92.96;98334.13;4920180;29;20032;-79
2022/01/09 07:25:41;;;;;;;11.48;2.20;;;;;;;3.38;92.61;98342.94;4919810;29;20040;-78
2022/01/09 07:28:07;;;;;;;13.43;2.40;;;;;;;3.38;92.92;98347.44;4919847;29;20034;-77
2022/01/09 07:30:32;;;;;;;6.70;1.45;;;;;;;3.38;92.71;98356.25;4920337;29;20040;-78
2022/01/09 07:32:58;;;;;;;6.63;1.95;;;;;;;3.36;92.92;98365.47;4919812;29;20044;-78
2022/01/09 07:35:24;;;;;;;3.45;1.50;;;;;;;3.37;92.60;98365.25;4919785;29;20032;-78
2022/01/09 07:37:50;;;;;;;5.65;1.30;;;;;;;3.38;91.88;98379.41;4918830;29;20036;-77
2022/01/09 07:40:15;;;;;;;11.15;2.03;;;;;;;3.43;92.43;98376.91;4920033;29;20484;-79
2022/01/09 07:42:41;;;;;;;8.75;2.45;;;;;;;3.46;91.79;98384.47;4919953;29;20047;-78
2022/01/09 07:45:07;;;;;;;6.40;1.80;;;;;;;3.48;91.09;98393.06;4919667;29;20040;-77
2022/01/09 07:47:36;;;;;;;9.23;1.80;;;;;;;3.46;92.10;98397.78;4918366;29;20088;-78
2022/01/09 07:50:03;;;;;;;11.48;1.67;;;;;;;3.46;91.85;98398.59;4920424;29;20035;-77
2022/01/09 07:52:29;;;;;;;2.88;1.13;;;;;;;3.46;91.99;98397.78;4919990;29;20416;-77
2022/01/09 07:54:54;;;;;;;4.00;1.55;;;;;;;3.47;92.02;98405.56;4920107;29;20032;-77
2022/01/09 07:57:20;;;;;;;8.50;1.83;;;;;;;3.47;91.48;98415.41;4921385;29;20436;-78
2022/01/09 07:59:45;;;;;;;9.82;1.52;;;;;;;3.42;92.41;98418.69;4918335;29;20080;-77
2022/01/09 08:02:11;;;;;;;10.05;1.63;;;;;;;3.43;91.95;98419.50;4920044;29;20036;-77
2022/01/09 08:04:36;;;;;;;6.57;1.77;;;;;;;3.42;92.15;98434.66;4918716;29;20040;-77
2022/01/09 08:07:02;;;;;;;4.70;1.40;;;;;;;3.55;92.40;98441.00;4918509;29;20040;-76
2022/01/09 08:09:27;;;;;;;3.38;2.05;;;;;;;3.54;91.78;98444.69;4919064;29;20480;-76
2022/01/09 08:11:53;;;;;;;4.53;1.80;;;;;;;3.51;90.80;98447.75;4918991;29;20032;-76
2022/01/09 08:14:18;;;;;;;4.80;1.33;;;;;;;3.51;91.44;98445.91;4918480;29;20284;-76
2022/01/09 08:16:44;;;;;;;5.55;1.50;;;;;;;3.47;91.02;98453.50;4918767;29;20127;-76
2022/01/09 08:19:09;;;;;;;6.85;1.52;;;;;;;3.41;91.32;98446.31;4917544;29;20043;-75
2022/01/09 08:21:35;;;;;;;4.45;1.58;;;;;;;3.44;91.65;98456.56;4918186;29;20060;-76
2022/01/09 08:24:00;;;;;;;7.85;1.40;;;;;;;3.55;91.43;98451.66;4918188;29;20036;-75
2022/01/09 08:26:25;;;;;;;6.47;1.38;;;;;;;3.49;90.24;98461.28;4918081;29;20463;-76
2022/01/09 08:28:51;;;;;;;7.88;2.20;;;;;;;3.55;90.10;98464.97;4918111;29;20076;-76
2022/01/09 08:31:18;;;;;;;4.97;1.50;;;;;;;3.51;90.66;98471.72;4918637;29;20044;-76
2022/01/09 08:33:45;;;;;;;7.82;1.15;;;;;;;3.47;90.92;98468.66;4919270;29;20320;-78
2022/01/09 08:36:10;;;;;;;7.82;2.58;;;;;;;3.50;90.92;98476.22;4918869;29;20028;-78
2022/01/09 08:38:35;;;;;;;5.75;1.70;;;;;;;3.44;90.44;98483.19;4919735;29;20395;-77
2022/01/09 08:41:01;;;;;;;17.73;3.25;;;;;;;3.38;91.19;98483.22;4918179;29;20036;-78
2022/01/09 08:43:26;;;;;;;5.72;1.80;;;;;;;3.44;91.14;98477.88;4919164;29;20040;-78
2022/01/09 08:45:52;;;;;;;5.90;1.25;;;;;;;3.35;90.47;98484.44;4919477;29;20468;-78
2022/01/09 08:48:18;;;;;;;5.67;1.90;;;;;;;3.44;89.95;98485.03;4920120;29;20460;-77
2022/01/09 08:50:44;;;;;;;8.23;1.45;;;;;;;3.57;90.91;98490.38;4919544;29;20463;-78
2022/01/09 08:53:09;;;;;;;5.60;1.23;;;;;;;3.52;89.84;98494.66;4920484;29;20036;-78
2022/01/09 08:55:35;;;;;;;5.38;1.75;;;;;;;3.51;89.87;98493.84;4922634;29;20079;-78
2022/01/09 08:58:01;;;;;;;7.35;1.88;;;;;;;3.40;89.31;98508.56;4924090;29;20090;-78
2022/01/09 09:00:26;;;;;;;9.40;1.67;;;;;;;3.40;90.16;98513.91;4925427;29;20036;-78
2022/01/09 09:02:52;;;;;;;10.43;2.28;;;;;;;3.52;90.54;98519.44;4922090;29;20047;-78
2022/01/09 09:05:18;;;;;;;6.25;1.52;;;;;;;3.39;90.24;98519.47;4919817;29;20186;-78
2022/01/09 09:07:44;;;;;;;6.50;1.80;;;;;;;3.38;89.95;98525.81;4919875;29;20081;-78
2022/01/09 09:10:10;;;;;;;13.07;1.73;;;;;;;3.34;90.58;98532.56;4918826;29;20044;-78
2022/01/09 09:12:35;;;;;;;5.40;2.00;;;;;;;3.29;90.31;98530.50;4917837;29;20036;-75
2022/01/09 09:15:03;;;;;;;4.97;1.63;;;;;;;3.28;90.46;98533.38;4917924;29;20039;-78
2022/01/09 09:17:30;;;;;;;9.45;1.63;;;;;;;3.32;90.78;98546.06;4916899;29;20036;-77
2022/01/09 09:19:55;;;;;;;;;;;;;;;3.35;90.81;98555.50;4920674;29;20028;-75
2022/01/09 09:22:21;;;;;;;4.65;1.20;;;;;;;3.36;90.69;98551.81;4919096;29;20006;-76
2022/01/09 09:24:46;;;;;;;8.73;2.75;;;;;;;3.37;90.60;98554.28;4919720;29;20064;-76
2022/01/09 09:27:11;;;;;;;11.57;2.00;;;;;;;3.36;91.12;98568.59;4921342;29;20088;-75
2022/01/09 09:29:37;;;;;;;11.35;2.88;;;;;;;3.39;91.06;98572.69;4920994;29;20035;-76
2022/01/09 09:32:02;;;;;;;9.82;1.80;;;;;;;3.40;90.99;98577.78;4918143;29;20032;-76
2022/01/09 09:34:28;;;;;;;5.65;1.40;;;;;;;3.40;90.99;98577.78;4917395;29;20036;-77
2022/01/09 09:36:54;;;;;;;7.38;2.45;;;;;;;3.43;90.56;98579.22;4917360;29;20032;-76
2022/01/09 09:39:19;;;;;;;9.90;1.50;;;;;;;3.41;90.93;98581.28;4916837;29;20079;-76
2022/01/09 09:41:45;;;;;;;5.97;1.98;;;;;;;3.42;91.24;98589.06;4916123;29;20054;-76
2022/01/09 09:44:12;;;;;;;7.65;1.60;;;;;;;3.41;91.12;98592.75;4917346;29;20088;-76
2022/01/09 09:46:37;;;;;;;16.10;1.85;;;;;;;3.41;91.16;98589.25;4918837;29;20036;-76
2022/01/09 09:49:03;;;;;;;2.58;1.08;;;;;;;3.42;91.05;98596.22;4933080;29;20042;-76
2022/01/09 09:51:30;;;;;;;4.25;1.35;;;;;;;3.41;91.53;98591.94;4923489;29;20036;-75
2022/01/09 09:53:55;;;;;;;;;;;;;;;3.48;91.06;98603.41;4922758;29;20036;-76
2022/01/09 09:56:21;;;;;;;5.45;1.20;;;;;;;3.47;90.57;98607.91;4921033;29;20362;-76
2022/01/09 09:58:49;;;;;;;5.75;1.40;;;;;;;3.43;90.54;98606.69;4918863;29;20032;-77
2022/01/09 10:01:27;;;;;;;11.30;2.42;;;;;;;3.43;90.98;98613.84;4918259;29;20092;-76
2022/01/09 10:04:00;;;;;;;7.60;2.17;;;;;;;3.47;90.74;98612.44;4917673;29;20032;-76
2022/01/09 10:06:45;;;;;;;8.20;1.98;;;;;;;3.51;90.91;98608.34;4918900;29;20084;-77
2022/01/09 10:09:19;;;;;;;10.55;2.40;;;;;;;3.51;91.09;98613.66;4916575;29;20084;-77
2022/01/09 10:11:48;;;;;;;6.82;2.42;;;;;;;3.53;90.52;98621.44;4917631;29;20084;-77
2022/01/09 10:14:23;;;;;;;8.57;2.45;;;;;;;3.56;90.63;98626.38;4916707;29;20055;-77
2022/01/09 10:17:06;;;;;;;10.57;2.30;;;;;;;3.54;91.01;98623.91;4917618;29;20052;-77
2022/01/09 10:19:51;;;;;;;7.20;2.13;;;;;;;3.55;91.00;98632.72;4916486;29;20099;-77
2022/01/09 10:22:40;;;;;;;7.68;2.22;;;;;;;3.58;91.31;98632.31;4917983;29;20057;-77
2022/01/09 10:25:31;;;;;;;6.10;2.50;;;;;;;3.60;91.11;98641.72;4917757;29;20035;-78
2022/01/09 10:27:57;;;;;;;14.27;2.03;;;;;;;3.62;91.11;98649.50;4917759;29;20036;-77
2022/01/09 10:30:26;;;;;;;6.53;2.50;;;;;;;3.64;90.90;98655.44;4917730;29;20060;-77
2022/01/09 10:33:04;;;;;;;10.15;2.75;;;;;;;3.63;91.04;98659.97;4917867;29;20136;-77
2022/01/09 10:35:31;;;;;;;5.43;2.05;;;;;;;3.66;90.83;98648.91;4917776;29;20032;-77
2022/01/09 10:38:19;;;;;;;10.40;2.55;;;;;;;3.61;90.92;98648.69;4917674;29;20032;-77
2022/01/09 10:40:49;;;;;;;7.13;1.92;;;;;;;3.65;89.98;98665.91;4917687;29;20119;-77
2022/01/09 10:43:18;;;;;;;9.57;2.50;;;;;;;3.68;90.19;98668.16;4919602;29;20074;-77
2022/01/09 10:45:46;;;;;;;7.80;3.25;;;;;;;3.66;89.58;98667.53;4921578;29;20032;-77
2022/01/09 10:48:20;;;;;;;6.93;2.15;;;;;;;3.67;89.06;98677.19;4921702;29;20043;-78
2022/01/09 10:50:48;;;;;;;8.02;2.33;;;;;;;3.73;88.63;98670.22;4920895;29;20028;-77
2022/01/09 10:53:29;;;;;;;14.20;3.05;;;;;;;3.72;89.40;98674.75;4920750;29;20032;-78
2022/01/09 10:56:15;;;;;;;9.30;2.55;;;;;;;3.73;89.39;98684.38;4921635;29;20036;-77
2022/01/09 10:58:49;;;;;;;6.85;2.53;;;;;;;3.71;89.59;98685.59;4921323;29;20079;-79
2022/01/09 11:01:16;;;;;;;8.85;2.72;;;;;;;3.72;89.67;98682.72;4921337;29;20039;-77
2022/01/09 11:03:47;;;;;;;12.65;2.50;;;;;;;3.73;89.07;98691.53;4920683;29;20055;-78
2022/01/09 11:06:13;;;;;;;5.75;2.17;;;;;;;3.73;89.96;98694.19;4919497;29;20029;-77
2022/01/09 11:08:39;;;;;;;8.88;2.20;;;;;;;3.72;89.32;98692.56;4920709;29;20062;-78
2022/01/09 11:11:13;;;;;;;6.00;2.22;;;;;;;3.66;89.58;98696.84;4921088;29;20060;-78
2022/01/09 11:13:43;;;;;;;7.20;2.22;;;;;;;3.61;89.90;98699.28;4920985;29;20035;-77
2022/01/09 11:18:56;;;;;;;10.82;2.58;;;;;;;3.62;90.02;98716.91;4920086;29;20036;-77
2022/01/09 11:21:22;;;;;;;7.03;2.42;;;;;;;3.63;90.05;98723.06;4918371;29;20420;-78
2022/01/09 11:23:56;;;;;;;9.70;3.35;;;;;;;3.63;90.20;98715.06;4919325;29;20044;-77
2022/01/09 11:26:32;;;;;;;7.85;2.70;;;;;;;3.64;90.58;98725.53;4920900;29;20039;-77
2022/01/09 11:28:57;;;;;;;10.48;2.80;;;;;;;3.67;90.02;98727.78;4919022;29;20067;-77
2022/01/09 11:31:43;;;;;;;11.57;3.40;;;;;;;3.68;89.96;98724.09;4920594;29;20032;-77
2022/01/09 11:34:31;;;;;;;14.00;3.65;;;;;;;3.71;90.30;98721.03;4920100;29;20139;-77
2022/01/09 11:37:12;;;;;;;9.30;2.88;;;;;;;3.73;90.10;98723.50;4908915;29;20044;-77
2022/01/09 11:39:38;;;;;;;6.65;2.85;;;;;;;3.78;89.55;98726.34;4920530;29;20036;-77
2022/01/09 11:42:12;;;;;;;9.80;3.33;;;;;;;3.79;89.48;98736.81;4920001;29;20034;-77
2022/01/09 11:45:04;;;;;;;8.98;3.15;;;;;;;3.81;89.16;98733.94;4919554;29;20260;-77